sensor_id;sensor_type;location;lat;lon;timestamp;P1;durP1;ratioP1;P2;durP2;ratioP2
12328;SDS011;6230;52.390;10.256;2022-10-31T00:00:17;11.35;;;8.95;;
12328;SDS011;6230;52.390;10.256;2022-10-31T00:02:42;10.60;;;7.45;;
12328;SDS011;6230;52.390;10.256;2022-10-31T00:05:08;11.68;;;7.28;;
12328;SDS011;6230;52.390;10.256;2022-10-31T00:07:34;10.93;;;8.35;;
12328;SDS011;6230;52.390;10.256;2022-10-31T00:09:59;12.35;;;8.25;;
12328;SDS011;6230;52.390;10.256;2022-10-31T00:12:25;11.43;;;7.60;;
12328;SDS011;6230;52.390;10.256;2022-10-31T00:14:51;11.52;;;7.60;;
12328;SDS011;6230;52.390;10.256;2022-10-31T00:17:16;11.30;;;7.78;;
12328;SDS011;6230;52.390;10.256;2022-10-31T00:19:42;10.68;;;7.20;;
12328;SDS011;6230;52.390;10.256;2022-10-31T00:22:07;9.27;;;7.60;;
12328;SDS011;6230;52.390;10.256;2022-10-31T00:24:33;9.25;;;7.50;;
12328;SDS011;6230;52.390;10.256;2022-10-31T00:26:58;13.00;;;8.38;;
12328;SDS011;6230;52.390;10.256;2022-10-31T00:29:24;13.13;;;8.15;;
12328;SDS011;6230;52.390;10.256;2022-10-31T00:31:49;10.80;;;7.57;;
12328;SDS011;6230;52.390;10.256;2022-10-31T00:34:16;11.25;;;7.95;;
12328;SDS011;6230;52.390;10.256;2022-10-31T00:36:42;11.38;;;7.72;;
12328;SDS011;6230;52.390;10.256;2022-10-31T00:39:07;10.57;;;8.23;;
12328;SDS011;6230;52.390;10.256;2022-10-31T00:41:33;12.13;;;8.20;;
12328;SDS011;6230;52.390;10.256;2022-10-31T00:43:58;9.48;;;7.65;;
12328;SDS011;6230;52.390;10.256;2022-10-31T00:46:24;14.32;;;8.35;;
12328;SDS011;6230;52.390;10.256;2022-10-31T00:48:49;9.40;;;7.93;;
12328;SDS011;6230;52.390;10.256;2022-10-31T00:51:15;14.02;;;8.38;;
12328;SDS011;6230;52.390;10.256;2022-10-31T00:53:40;13.43;;;8.50;;
12328;SDS011;6230;52.390;10.256;2022-10-31T00:56:06;11.40;;;8.18;;
12328;SDS011;6230;52.390;10.256;2022-10-31T00:58:32;12.13;;;7.72;;
12328;SDS011;6230;52.390;10.256;2022-10-31T01:00:57;10.20;;;8.55;;
12328;SDS011;6230;52.390;10.256;2022-10-31T01:03:24;14.55;;;8.52;;
12328;SDS011;6230;52.390;10.256;2022-10-31T01:05:55;10.88;;;8.38;;
12328;SDS011;6230;52.390;10.256;2022-10-31T01:08:35;12.55;;;8.45;;
12328;SDS011;6230;52.390;10.256;2022-10-31T01:11:03;12.23;;;8.68;;
12328;SDS011;6230;52.390;10.256;2022-10-31T01:13:34;12.85;;;8.80;;
12328;SDS011;6230;52.390;10.256;2022-10-31T01:16:01;12.70;;;9.10;;
12328;SDS011;6230;52.390;10.256;2022-10-31T01:18:28;11.20;;;8.48;;
12328;SDS011;6230;52.390;10.256;2022-10-31T01:20:58;10.40;;;9.25;;
12328;SDS011;6230;52.390;10.256;2022-10-31T01:23:33;12.13;;;8.77;;
12328;SDS011;6230;52.390;10.256;2022-10-31T01:26:12;12.52;;;9.23;;
12328;SDS011;6230;52.390;10.256;2022-10-31T01:28:44;13.98;;;10.23;;
12328;SDS011;6230;52.390;10.256;2022-10-31T01:31:11;12.73;;;10.20;;
12328;SDS011;6230;52.390;10.256;2022-10-31T01:33:38;13.75;;;10.68;;
12328;SDS011;6230;52.390;10.256;2022-10-31T01:36:14;13.93;;;10.75;;
12328;SDS011;6230;52.390;10.256;2022-10-31T01:38:42;12.68;;;9.93;;
12328;SDS011;6230;52.390;10.256;2022-10-31T01:41:08;14.20;;;10.32;;
12328;SDS011;6230;52.390;10.256;2022-10-31T01:43:43;17.95;;;10.85;;
12328;SDS011;6230;52.390;10.256;2022-10-31T01:46:19;12.40;;;10.93;;
12328;SDS011;6230;52.390;10.256;2022-10-31T01:48:59;14.80;;;10.18;;
12328;SDS011;6230;52.390;10.256;2022-10-31T01:51:30;16.67;;;10.48;;
12328;SDS011;6230;52.390;10.256;2022-10-31T01:54:00;15.60;;;11.32;;
12328;SDS011;6230;52.390;10.256;2022-10-31T01:56:31;19.08;;;11.55;;
12328;SDS011;6230;52.390;10.256;2022-10-31T01:58:59;15.32;;;10.98;;
12328;SDS011;6230;52.390;10.256;2022-10-31T02:01:29;17.60;;;11.77;;
12328;SDS011;6230;52.390;10.256;2022-10-31T02:03:55;14.02;;;11.65;;
12328;SDS011;6230;52.390;10.256;2022-10-31T02:06:25;13.90;;;11.35;;
12328;SDS011;6230;52.390;10.256;2022-10-31T02:09:04;13.68;;;9.80;;
12328;SDS011;6230;52.390;10.256;2022-10-31T02:11:30;16.65;;;11.43;;
12328;SDS011;6230;52.390;10.256;2022-10-31T02:13:58;20.05;;;12.52;;
12328;SDS011;6230;52.390;10.256;2022-10-31T02:16:25;20.58;;;13.13;;
12328;SDS011;6230;52.390;10.256;2022-10-31T02:18:50;18.67;;;12.30;;
12328;SDS011;6230;52.390;10.256;2022-10-31T02:21:23;17.55;;;13.05;;
12328;SDS011;6230;52.390;10.256;2022-10-31T02:26:40;20.33;;;14.05;;
12328;SDS011;6230;52.390;10.256;2022-10-31T02:32:14;20.63;;;13.35;;
12328;SDS011;6230;52.390;10.256;2022-10-31T02:37:25;18.07;;;14.70;;
12328;SDS011;6230;52.390;10.256;2022-10-31T02:40:23;20.70;;;16.55;;
12328;SDS011;6230;52.390;10.256;2022-10-31T02:43:19;19.00;;;16.95;;
12328;SDS011;6230;52.390;10.256;2022-10-31T02:45:53;22.15;;;16.98;;
12328;SDS011;6230;52.390;10.256;2022-10-31T02:48:25;25.23;;;16.45;;
12328;SDS011;6230;52.390;10.256;2022-10-31T02:50:56;23.20;;;16.87;;
12328;SDS011;6230;52.390;10.256;2022-10-31T02:53:25;26.13;;;18.10;;
12328;SDS011;6230;52.390;10.256;2022-10-31T02:58:24;20.48;;;15.43;;
12328;SDS011;6230;52.390;10.256;2022-10-31T03:07:03;27.90;;;16.27;;
12328;SDS011;6230;52.390;10.256;2022-10-31T03:09:42;19.60;;;16.23;;
12328;SDS011;6230;52.390;10.256;2022-10-31T03:12:24;20.73;;;16.67;;
12328;SDS011;6230;52.390;10.256;2022-10-31T03:17:36;23.45;;;15.77;;
12328;SDS011;6230;52.390;10.256;2022-10-31T03:20:04;24.02;;;16.00;;
12328;SDS011;6230;52.390;10.256;2022-10-31T03:22:33;24.23;;;15.77;;
12328;SDS011;6230;52.390;10.256;2022-10-31T03:25:01;20.58;;;15.13;;
12328;SDS011;6230;52.390;10.256;2022-10-31T03:27:29;23.40;;;16.08;;
12328;SDS011;6230;52.390;10.256;2022-10-31T03:29:57;22.65;;;15.85;;
12328;SDS011;6230;52.390;10.256;2022-10-31T03:32:49;25.17;;;15.68;;
12328;SDS011;6230;52.390;10.256;2022-10-31T03:35:15;24.60;;;15.40;;
12328;SDS011;6230;52.390;10.256;2022-10-31T03:37:44;22.42;;;15.80;;
12328;SDS011;6230;52.390;10.256;2022-10-31T03:40:11;23.80;;;14.90;;
12328;SDS011;6230;52.390;10.256;2022-10-31T03:42:41;22.52;;;15.88;;
12328;SDS011;6230;52.390;10.256;2022-10-31T03:45:12;23.88;;;16.25;;
12328;SDS011;6230;52.390;10.256;2022-10-31T03:47:49;22.98;;;15.70;;
12328;SDS011;6230;52.390;10.256;2022-10-31T03:50:15;23.25;;;15.88;;
12328;SDS011;6230;52.390;10.256;2022-10-31T03:52:49;28.08;;;17.15;;
12328;SDS011;6230;52.390;10.256;2022-10-31T04:00:33;23.90;;;17.13;;
12328;SDS011;6230;52.390;10.256;2022-10-31T04:03:03;21.75;;;16.08;;
12328;SDS011;6230;52.390;10.256;2022-10-31T04:05:42;24.08;;;17.15;;
12328;SDS011;6230;52.390;10.256;2022-10-31T04:08:12;20.88;;;15.90;;
12328;SDS011;6230;52.390;10.256;2022-10-31T04:10:42;24.48;;;17.17;;
12328;SDS011;6230;52.390;10.256;2022-10-31T04:13:11;26.40;;;17.90;;
12328;SDS011;6230;52.390;10.256;2022-10-31T04:15:41;24.98;;;16.88;;
12328;SDS011;6230;52.390;10.256;2022-10-31T04:18:08;28.58;;;20.00;;
12328;SDS011;6230;52.390;10.256;2022-10-31T04:20:37;31.80;;;22.67;;
12328;SDS011;6230;52.390;10.256;2022-10-31T04:23:04;35.37;;;23.37;;
12328;SDS011;6230;52.390;10.256;2022-10-31T04:25:35;35.17;;;21.33;;
12328;SDS011;6230;52.390;10.256;2022-10-31T04:28:01;29.00;;;20.20;;
12328;SDS011;6230;52.390;10.256;2022-10-31T04:30:26;29.60;;;18.98;;
12328;SDS011;6230;52.390;10.256;2022-10-31T04:32:52;28.90;;;19.92;;
12328;SDS011;6230;52.390;10.256;2022-10-31T04:35:17;33.45;;;20.10;;
12328;SDS011;6230;52.390;10.256;2022-10-31T04:37:43;32.80;;;21.55;;
12328;SDS011;6230;52.390;10.256;2022-10-31T04:40:09;26.90;;;20.25;;
12328;SDS011;6230;52.390;10.256;2022-10-31T04:42:35;29.17;;;20.20;;
12328;SDS011;6230;52.390;10.256;2022-10-31T04:45:01;34.90;;;22.83;;
12328;SDS011;6230;52.390;10.256;2022-10-31T04:47:27;32.67;;;23.58;;
12328;SDS011;6230;52.390;10.256;2022-10-31T04:49:56;32.80;;;23.27;;
12328;SDS011;6230;52.390;10.256;2022-10-31T04:52:22;30.93;;;23.70;;
12328;SDS011;6230;52.390;10.256;2022-10-31T04:54:48;32.30;;;23.97;;
12328;SDS011;6230;52.390;10.256;2022-10-31T04:57:13;33.38;;;22.98;;
12328;SDS011;6230;52.390;10.256;2022-10-31T04:59:38;31.50;;;24.23;;
12328;SDS011;6230;52.390;10.256;2022-10-31T05:02:04;29.13;;;22.90;;
12328;SDS011;6230;52.390;10.256;2022-10-31T05:04:29;31.50;;;24.60;;
12328;SDS011;6230;52.390;10.256;2022-10-31T05:06:55;33.93;;;24.80;;
12328;SDS011;6230;52.390;10.256;2022-10-31T05:09:20;34.63;;;23.88;;
12328;SDS011;6230;52.390;10.256;2022-10-31T05:11:46;30.90;;;24.00;;
12328;SDS011;6230;52.390;10.256;2022-10-31T05:14:11;29.20;;;24.83;;
12328;SDS011;6230;52.390;10.256;2022-10-31T05:16:37;33.38;;;24.27;;
12328;SDS011;6230;52.390;10.256;2022-10-31T05:19:02;32.57;;;24.40;;
12328;SDS011;6230;52.390;10.256;2022-10-31T05:21:28;32.10;;;23.88;;
12328;SDS011;6230;52.390;10.256;2022-10-31T05:23:53;30.70;;;23.13;;
12328;SDS011;6230;52.390;10.256;2022-10-31T05:26:19;28.33;;;23.27;;
12328;SDS011;6230;52.390;10.256;2022-10-31T05:28:45;30.00;;;23.20;;
12328;SDS011;6230;52.390;10.256;2022-10-31T05:31:10;31.30;;;22.53;;
12328;SDS011;6230;52.390;10.256;2022-10-31T05:33:35;31.85;;;23.02;;
12328;SDS011;6230;52.390;10.256;2022-10-31T05:36:01;28.88;;;22.02;;
12328;SDS011;6230;52.390;10.256;2022-10-31T05:38:27;31.95;;;22.10;;
12328;SDS011;6230;52.390;10.256;2022-10-31T05:40:55;30.70;;;21.27;;
12328;SDS011;6230;52.390;10.256;2022-10-31T05:43:23;31.45;;;24.38;;
12328;SDS011;6230;52.390;10.256;2022-10-31T05:45:51;28.70;;;23.83;;
12328;SDS011;6230;52.390;10.256;2022-10-31T05:48:20;28.60;;;22.17;;
12328;SDS011;6230;52.390;10.256;2022-10-31T05:50:47;27.55;;;22.70;;
12328;SDS011;6230;52.390;10.256;2022-10-31T05:53:13;31.33;;;23.23;;
12328;SDS011;6230;52.390;10.256;2022-10-31T05:55:39;34.95;;;24.00;;
12328;SDS011;6230;52.390;10.256;2022-10-31T05:58:06;35.83;;;26.38;;
12328;SDS011;6230;52.390;10.256;2022-10-31T06:00:31;35.57;;;26.87;;
12328;SDS011;6230;52.390;10.256;2022-10-31T06:03:03;34.28;;;25.90;;
12328;SDS011;6230;52.390;10.256;2022-10-31T06:05:30;33.57;;;25.03;;
12328;SDS011;6230;52.390;10.256;2022-10-31T06:07:56;37.13;;;25.33;;
12328;SDS011;6230;52.390;10.256;2022-10-31T06:10:22;35.83;;;24.48;;
12328;SDS011;6230;52.390;10.256;2022-10-31T06:12:48;33.83;;;25.63;;
12328;SDS011;6230;52.390;10.256;2022-10-31T06:15:14;31.90;;;24.02;;
12328;SDS011;6230;52.390;10.256;2022-10-31T06:17:39;29.60;;;23.90;;
12328;SDS011;6230;52.390;10.256;2022-10-31T06:20:05;34.15;;;24.58;;
12328;SDS011;6230;52.390;10.256;2022-10-31T06:22:32;32.50;;;25.67;;
12328;SDS011;6230;52.390;10.256;2022-10-31T06:24:58;32.67;;;25.52;;
12328;SDS011;6230;52.390;10.256;2022-10-31T06:27:23;35.63;;;25.00;;
12328;SDS011;6230;52.390;10.256;2022-10-31T06:29:49;34.13;;;24.30;;
12328;SDS011;6230;52.390;10.256;2022-10-31T06:32:15;33.17;;;24.97;;
12328;SDS011;6230;52.390;10.256;2022-10-31T06:34:41;32.63;;;25.05;;
12328;SDS011;6230;52.390;10.256;2022-10-31T06:37:08;37.83;;;28.63;;
12328;SDS011;6230;52.390;10.256;2022-10-31T06:39:34;35.87;;;26.13;;
12328;SDS011;6230;52.390;10.256;2022-10-31T06:42:00;34.93;;;24.80;;
12328;SDS011;6230;52.390;10.256;2022-10-31T06:44:26;34.27;;;26.60;;
12328;SDS011;6230;52.390;10.256;2022-10-31T06:46:52;33.75;;;27.70;;
12328;SDS011;6230;52.390;10.256;2022-10-31T06:49:17;37.33;;;28.90;;
12328;SDS011;6230;52.390;10.256;2022-10-31T06:51:43;35.78;;;28.52;;
12328;SDS011;6230;52.390;10.256;2022-10-31T06:54:12;36.65;;;27.30;;
12328;SDS011;6230;52.390;10.256;2022-10-31T06:56:37;35.93;;;27.37;;
12328;SDS011;6230;52.390;10.256;2022-10-31T06:59:03;33.27;;;27.50;;
12328;SDS011;6230;52.390;10.256;2022-10-31T07:01:28;35.23;;;27.67;;
12328;SDS011;6230;52.390;10.256;2022-10-31T07:03:54;34.40;;;27.73;;
12328;SDS011;6230;52.390;10.256;2022-10-31T07:06:19;30.87;;;26.70;;
12328;SDS011;6230;52.390;10.256;2022-10-31T07:08:45;32.67;;;26.50;;
12328;SDS011;6230;52.390;10.256;2022-10-31T07:11:10;33.10;;;27.50;;
12328;SDS011;6230;52.390;10.256;2022-10-31T07:13:36;40.80;;;27.37;;
12328;SDS011;6230;52.390;10.256;2022-10-31T07:16:03;37.33;;;28.30;;
12328;SDS011;6230;52.390;10.256;2022-10-31T07:18:31;38.23;;;28.73;;
12328;SDS011;6230;52.390;10.256;2022-10-31T07:20:57;38.35;;;30.38;;
12328;SDS011;6230;52.390;10.256;2022-10-31T07:23:22;39.87;;;30.80;;
12328;SDS011;6230;52.390;10.256;2022-10-31T07:25:48;36.80;;;29.27;;
12328;SDS011;6230;52.390;10.256;2022-10-31T07:28:19;31.93;;;27.77;;
12328;SDS011;6230;52.390;10.256;2022-10-31T07:30:48;30.70;;;27.33;;
12328;SDS011;6230;52.390;10.256;2022-10-31T07:33:15;30.85;;;25.08;;
12328;SDS011;6230;52.390;10.256;2022-10-31T07:35:40;30.42;;;25.77;;
12328;SDS011;6230;52.390;10.256;2022-10-31T07:38:06;34.43;;;29.13;;
12328;SDS011;6230;52.390;10.256;2022-10-31T07:40:33;42.13;;;31.63;;
12328;SDS011;6230;52.390;10.256;2022-10-31T07:42:59;34.65;;;30.02;;
12328;SDS011;6230;52.390;10.256;2022-10-31T07:45:24;40.63;;;32.40;;
12328;SDS011;6230;52.390;10.256;2022-10-31T07:47:51;45.45;;;35.75;;
12328;SDS011;6230;52.390;10.256;2022-10-31T07:50:18;95.00;;;70.28;;
12328;SDS011;6230;52.390;10.256;2022-10-31T07:52:46;58.15;;;44.90;;
12328;SDS011;6230;52.390;10.256;2022-10-31T07:55:12;56.38;;;41.28;;
12328;SDS011;6230;52.390;10.256;2022-10-31T07:57:38;56.40;;;44.00;;
12328;SDS011;6230;52.390;10.256;2022-10-31T08:00:04;49.30;;;39.60;;
12328;SDS011;6230;52.390;10.256;2022-10-31T08:02:31;48.00;;;40.60;;
12328;SDS011;6230;52.390;10.256;2022-10-31T08:04:57;48.92;;;38.67;;
12328;SDS011;6230;52.390;10.256;2022-10-31T08:07:22;49.92;;;39.05;;
12328;SDS011;6230;52.390;10.256;2022-10-31T08:09:48;56.03;;;40.40;;
12328;SDS011;6230;52.390;10.256;2022-10-31T08:12:13;51.50;;;40.28;;
12328;SDS011;6230;52.390;10.256;2022-10-31T08:14:39;59.20;;;50.80;;
12328;SDS011;6230;52.390;10.256;2022-10-31T08:17:04;63.88;;;52.38;;
12328;SDS011;6230;52.390;10.256;2022-10-31T08:19:30;51.08;;;44.63;;
12328;SDS011;6230;52.390;10.256;2022-10-31T08:21:55;49.05;;;39.13;;
12328;SDS011;6230;52.390;10.256;2022-10-31T08:24:21;49.03;;;41.97;;
12328;SDS011;6230;52.390;10.256;2022-10-31T08:26:47;52.20;;;38.72;;
12328;SDS011;6230;52.390;10.256;2022-10-31T08:29:12;44.00;;;37.53;;
12328;SDS011;6230;52.390;10.256;2022-10-31T08:31:39;45.13;;;38.50;;
12328;SDS011;6230;52.390;10.256;2022-10-31T08:34:05;47.45;;;39.00;;
12328;SDS011;6230;52.390;10.256;2022-10-31T08:36:30;44.73;;;38.50;;
12328;SDS011;6230;52.390;10.256;2022-10-31T08:38:56;45.20;;;37.47;;
12328;SDS011;6230;52.390;10.256;2022-10-31T08:41:21;45.57;;;37.73;;
12328;SDS011;6230;52.390;10.256;2022-10-31T08:43:47;47.47;;;36.47;;
12328;SDS011;6230;52.390;10.256;2022-10-31T08:46:14;46.85;;;35.42;;
12328;SDS011;6230;52.390;10.256;2022-10-31T08:48:39;44.30;;;34.17;;
12328;SDS011;6230;52.390;10.256;2022-10-31T08:51:05;40.13;;;34.97;;
12328;SDS011;6230;52.390;10.256;2022-10-31T08:53:31;46.63;;;37.92;;
12328;SDS011;6230;52.390;10.256;2022-10-31T08:55:57;42.45;;;37.00;;
12328;SDS011;6230;52.390;10.256;2022-10-31T08:58:23;45.70;;;37.92;;
12328;SDS011;6230;52.390;10.256;2022-10-31T09:00:50;47.08;;;36.00;;
12328;SDS011;6230;52.390;10.256;2022-10-31T09:03:21;42.35;;;34.78;;
12328;SDS011;6230;52.390;10.256;2022-10-31T09:05:49;44.75;;;38.15;;
12328;SDS011;6230;52.390;10.256;2022-10-31T09:08:15;47.63;;;35.97;;
12328;SDS011;6230;52.390;10.256;2022-10-31T09:10:41;38.40;;;33.80;;
12328;SDS011;6230;52.390;10.256;2022-10-31T09:13:14;40.97;;;34.35;;
12328;SDS011;6230;52.390;10.256;2022-10-31T09:15:42;41.15;;;35.97;;
12328;SDS011;6230;52.390;10.256;2022-10-31T09:18:10;42.78;;;32.92;;
12328;SDS011;6230;52.390;10.256;2022-10-31T09:20:36;40.17;;;35.20;;
12328;SDS011;6230;52.390;10.256;2022-10-31T09:23:04;44.55;;;34.85;;
12328;SDS011;6230;52.390;10.256;2022-10-31T09:25:43;46.13;;;34.00;;
12328;SDS011;6230;52.390;10.256;2022-10-31T09:28:11;43.80;;;35.15;;
12328;SDS011;6230;52.390;10.256;2022-10-31T09:30:38;38.78;;;33.67;;
12328;SDS011;6230;52.390;10.256;2022-10-31T09:33:04;40.78;;;32.67;;
12328;SDS011;6230;52.390;10.256;2022-10-31T09:35:39;39.85;;;34.92;;
12328;SDS011;6230;52.390;10.256;2022-10-31T09:38:09;44.90;;;34.35;;
12328;SDS011;6230;52.390;10.256;2022-10-31T09:40:38;40.05;;;32.70;;
12328;SDS011;6230;52.390;10.256;2022-10-31T09:51:25;38.53;;;27.67;;
12328;SDS011;6230;52.390;10.256;2022-10-31T09:54:06;38.20;;;26.05;;
12328;SDS011;6230;52.390;10.256;2022-10-31T09:56:40;36.42;;;27.08;;
12328;SDS011;6230;52.390;10.256;2022-10-31T09:59:11;39.78;;;28.67;;
12328;SDS011;6230;52.390;10.256;2022-10-31T10:01:55;39.05;;;27.85;;
12328;SDS011;6230;52.390;10.256;2022-10-31T10:04:46;37.13;;;27.08;;
12328;SDS011;6230;52.390;10.256;2022-10-31T10:09:57;42.88;;;30.00;;
12328;SDS011;6230;52.390;10.256;2022-10-31T10:12:35;35.80;;;27.77;;
12328;SDS011;6230;52.390;10.256;2022-10-31T10:15:27;43.45;;;29.83;;
12328;SDS011;6230;52.390;10.256;2022-10-31T10:20:44;37.88;;;27.98;;
12328;SDS011;6230;52.390;10.256;2022-10-31T10:26:37;44.45;;;31.05;;
12328;SDS011;6230;52.390;10.256;2022-10-31T10:31:51;42.13;;;29.40;;
12328;SDS011;6230;52.390;10.256;2022-10-31T10:34:24;42.30;;;31.13;;
12328;SDS011;6230;52.390;10.256;2022-10-31T10:36:57;41.38;;;31.67;;
12328;SDS011;6230;52.390;10.256;2022-10-31T10:39:30;44.05;;;30.15;;
12328;SDS011;6230;52.390;10.256;2022-10-31T10:42:07;44.28;;;31.65;;
12328;SDS011;6230;52.390;10.256;2022-10-31T10:44:55;43.20;;;30.33;;
12328;SDS011;6230;52.390;10.256;2022-10-31T10:47:46;41.00;;;31.45;;
12328;SDS011;6230;52.390;10.256;2022-10-31T10:50:18;42.97;;;31.55;;
12328;SDS011;6230;52.390;10.256;2022-10-31T10:52:55;40.90;;;29.05;;
12328;SDS011;6230;52.390;10.256;2022-10-31T10:55:28;38.15;;;30.80;;
12328;SDS011;6230;52.390;10.256;2022-10-31T10:58:07;45.85;;;30.95;;
12328;SDS011;6230;52.390;10.256;2022-10-31T11:00:41;41.53;;;28.02;;
12328;SDS011;6230;52.390;10.256;2022-10-31T11:03:11;39.00;;;28.33;;
12328;SDS011;6230;52.390;10.256;2022-10-31T11:08:24;40.67;;;29.60;;
12328;SDS011;6230;52.390;10.256;2022-10-31T11:11:04;45.38;;;28.85;;
12328;SDS011;6230;52.390;10.256;2022-10-31T11:13:45;40.65;;;29.02;;
12328;SDS011;6230;52.390;10.256;2022-10-31T11:16:33;36.83;;;26.48;;
12328;SDS011;6230;52.390;10.256;2022-10-31T11:19:21;41.13;;;27.08;;
12328;SDS011;6230;52.390;10.256;2022-10-31T11:21:51;41.45;;;25.40;;
12328;SDS011;6230;52.390;10.256;2022-10-31T11:24:22;38.22;;;27.13;;
12328;SDS011;6230;52.390;10.256;2022-10-31T11:26:51;39.95;;;27.17;;
12328;SDS011;6230;52.390;10.256;2022-10-31T11:29:27;41.55;;;27.42;;
12328;SDS011;6230;52.390;10.256;2022-10-31T11:31:53;37.45;;;26.67;;
12328;SDS011;6230;52.390;10.256;2022-10-31T11:34:32;38.53;;;26.65;;
12328;SDS011;6230;52.390;10.256;2022-10-31T11:37:02;38.35;;;25.90;;
12328;SDS011;6230;52.390;10.256;2022-10-31T11:39:40;39.38;;;26.58;;
12328;SDS011;6230;52.390;10.256;2022-10-31T11:42:08;38.60;;;25.70;;
12328;SDS011;6230;52.390;10.256;2022-10-31T11:44:33;40.58;;;28.10;;
12328;SDS011;6230;52.390;10.256;2022-10-31T11:47:03;39.30;;;26.83;;
12328;SDS011;6230;52.390;10.256;2022-10-31T11:52:07;34.30;;;25.58;;
12328;SDS011;6230;52.390;10.256;2022-10-31T11:54:44;39.15;;;26.55;;
12328;SDS011;6230;52.390;10.256;2022-10-31T11:57:55;39.75;;;25.52;;
12328;SDS011;6230;52.390;10.256;2022-10-31T12:00:23;38.40;;;26.02;;
12328;SDS011;6230;52.390;10.256;2022-10-31T12:02:51;36.33;;;26.55;;
12328;SDS011;6230;52.390;10.256;2022-10-31T12:05:55;36.08;;;24.92;;
12328;SDS011;6230;52.390;10.256;2022-10-31T12:08:25;34.42;;;26.35;;
12328;SDS011;6230;52.390;10.256;2022-10-31T12:21:59;38.83;;;24.95;;
12328;SDS011;6230;52.390;10.256;2022-10-31T12:27:28;39.33;;;26.88;;
12328;SDS011;6230;52.390;10.256;2022-10-31T12:30:10;39.20;;;25.73;;
12328;SDS011;6230;52.390;10.256;2022-10-31T12:38:02;30.63;;;25.20;;
12328;SDS011;6230;52.390;10.256;2022-10-31T12:46:16;39.08;;;27.73;;
12328;SDS011;6230;52.390;10.256;2022-10-31T12:54:43;40.80;;;26.13;;
12328;SDS011;6230;52.390;10.256;2022-10-31T12:59:54;35.67;;;25.70;;
12328;SDS011;6230;52.390;10.256;2022-10-31T13:02:30;43.40;;;31.83;;
12328;SDS011;6230;52.390;10.256;2022-10-31T13:05:02;36.40;;;27.52;;
12328;SDS011;6230;52.390;10.256;2022-10-31T13:07:49;33.80;;;26.58;;
12328;SDS011;6230;52.390;10.256;2022-10-31T13:10:22;33.88;;;24.95;;
12328;SDS011;6230;52.390;10.256;2022-10-31T13:13:07;38.20;;;28.45;;
12328;SDS011;6230;52.390;10.256;2022-10-31T13:15:49;33.55;;;24.95;;
12328;SDS011;6230;52.390;10.256;2022-10-31T13:18:22;31.90;;;23.60;;
12328;SDS011;6230;52.390;10.256;2022-10-31T13:21:12;36.75;;;26.15;;
12328;SDS011;6230;52.390;10.256;2022-10-31T13:24:02;31.48;;;22.80;;
12328;SDS011;6230;52.390;10.256;2022-10-31T13:26:37;32.03;;;23.55;;
12328;SDS011;6230;52.390;10.256;2022-10-31T13:29:21;35.30;;;25.95;;
12328;SDS011;6230;52.390;10.256;2022-10-31T13:31:50;31.48;;;25.20;;
12328;SDS011;6230;52.390;10.256;2022-10-31T13:34:19;28.23;;;20.92;;
12328;SDS011;6230;52.390;10.256;2022-10-31T13:39:53;35.90;;;26.02;;
12328;SDS011;6230;52.390;10.256;2022-10-31T13:45:32;37.80;;;29.15;;
12328;SDS011;6230;52.390;10.256;2022-10-31T13:48:17;39.35;;;28.83;;
12328;SDS011;6230;52.390;10.256;2022-10-31T13:51:01;41.85;;;31.23;;
12328;SDS011;6230;52.390;10.256;2022-10-31T13:58:34;39.50;;;28.95;;
12328;SDS011;6230;52.390;10.256;2022-10-31T14:01:02;37.42;;;25.65;;
12328;SDS011;6230;52.390;10.256;2022-10-31T14:03:37;35.10;;;25.45;;
12328;SDS011;6230;52.390;10.256;2022-10-31T14:06:05;31.83;;;23.80;;
12328;SDS011;6230;52.390;10.256;2022-10-31T14:08:33;37.92;;;27.80;;
12328;SDS011;6230;52.390;10.256;2022-10-31T14:11:01;35.78;;;23.73;;
12328;SDS011;6230;52.390;10.256;2022-10-31T14:13:29;33.03;;;21.95;;
12328;SDS011;6230;52.390;10.256;2022-10-31T14:16:03;35.05;;;24.38;;
12328;SDS011;6230;52.390;10.256;2022-10-31T14:18:34;36.45;;;23.73;;
12328;SDS011;6230;52.390;10.256;2022-10-31T14:21:25;29.55;;;20.23;;
12328;SDS011;6230;52.390;10.256;2022-10-31T14:23:52;28.40;;;20.27;;
12328;SDS011;6230;52.390;10.256;2022-10-31T14:28:44;34.40;;;23.33;;
12328;SDS011;6230;52.390;10.256;2022-10-31T14:33:57;28.52;;;20.73;;
12328;SDS011;6230;52.390;10.256;2022-10-31T14:36:31;33.22;;;21.92;;
12328;SDS011;6230;52.390;10.256;2022-10-31T14:44:38;28.50;;;21.92;;
12328;SDS011;6230;52.390;10.256;2022-10-31T14:47:14;37.42;;;23.25;;
12328;SDS011;6230;52.390;10.256;2022-10-31T14:52:32;27.83;;;21.83;;
12328;SDS011;6230;52.390;10.256;2022-10-31T14:55:01;30.80;;;23.63;;
12328;SDS011;6230;52.390;10.256;2022-10-31T14:57:32;30.83;;;23.20;;
12328;SDS011;6230;52.390;10.256;2022-10-31T15:00:02;30.80;;;23.85;;
12328;SDS011;6230;52.390;10.256;2022-10-31T15:02:38;34.03;;;23.70;;
12328;SDS011;6230;52.390;10.256;2022-10-31T15:05:14;33.20;;;23.33;;
12328;SDS011;6230;52.390;10.256;2022-10-31T15:07:51;31.80;;;24.35;;
12328;SDS011;6230;52.390;10.256;2022-10-31T15:10:25;36.55;;;23.75;;
12328;SDS011;6230;52.390;10.256;2022-10-31T15:13:17;30.85;;;24.45;;
12328;SDS011;6230;52.390;10.256;2022-10-31T15:15:44;33.38;;;22.58;;
12328;SDS011;6230;52.390;10.256;2022-10-31T15:18:16;28.85;;;21.83;;
12328;SDS011;6230;52.390;10.256;2022-10-31T15:20:45;27.27;;;20.98;;
12328;SDS011;6230;52.390;10.256;2022-10-31T15:23:14;32.25;;;23.73;;
12328;SDS011;6230;52.390;10.256;2022-10-31T15:25:43;30.90;;;24.75;;
12328;SDS011;6230;52.390;10.256;2022-10-31T15:28:19;34.70;;;25.85;;
12328;SDS011;6230;52.390;10.256;2022-10-31T15:30:55;32.90;;;23.98;;
12328;SDS011;6230;52.390;10.256;2022-10-31T15:33:23;31.52;;;22.15;;
12328;SDS011;6230;52.390;10.256;2022-10-31T15:35:55;29.95;;;21.30;;
12328;SDS011;6230;52.390;10.256;2022-10-31T15:38:25;27.85;;;21.98;;
12328;SDS011;6230;52.390;10.256;2022-10-31T15:40:52;28.20;;;20.88;;
12328;SDS011;6230;52.390;10.256;2022-10-31T15:43:20;29.75;;;21.45;;
12328;SDS011;6230;52.390;10.256;2022-10-31T15:45:46;31.10;;;20.95;;
12328;SDS011;6230;52.390;10.256;2022-10-31T15:48:19;29.17;;;20.50;;
12328;SDS011;6230;52.390;10.256;2022-10-31T15:50:49;28.15;;;19.40;;
12328;SDS011;6230;52.390;10.256;2022-10-31T15:53:21;30.00;;;20.63;;
12328;SDS011;6230;52.390;10.256;2022-10-31T15:55:53;26.65;;;20.00;;
12328;SDS011;6230;52.390;10.256;2022-10-31T15:58:21;26.48;;;19.80;;
12328;SDS011;6230;52.390;10.256;2022-10-31T16:01:04;27.25;;;19.17;;
12328;SDS011;6230;52.390;10.256;2022-10-31T16:03:43;27.88;;;20.48;;
12328;SDS011;6230;52.390;10.256;2022-10-31T16:06:18;31.77;;;22.95;;
12328;SDS011;6230;52.390;10.256;2022-10-31T16:08:45;35.05;;;20.85;;
12328;SDS011;6230;52.390;10.256;2022-10-31T16:11:15;27.35;;;19.83;;
12328;SDS011;6230;52.390;10.256;2022-10-31T16:13:52;29.25;;;19.77;;
12328;SDS011;6230;52.390;10.256;2022-10-31T16:16:26;26.48;;;20.25;;
12328;SDS011;6230;52.390;10.256;2022-10-31T16:18:53;31.90;;;21.35;;
12328;SDS011;6230;52.390;10.256;2022-10-31T16:21:30;30.05;;;20.80;;
12328;SDS011;6230;52.390;10.256;2022-10-31T16:24:03;31.08;;;20.35;;
12328;SDS011;6230;52.390;10.256;2022-10-31T16:26:38;29.92;;;21.90;;
12328;SDS011;6230;52.390;10.256;2022-10-31T16:29:03;30.77;;;22.20;;